sensor_id;sensor_type;location;lat;lon;timestamp;pressure;altitude;pressure_sealevel;temperature;humidity
73516;BME280;61763;51.416;5.442;2023-02-07T00:02:19;103906.34;;;-0.41;100.00
73516;BME280;61763;51.416;5.442;2023-02-07T00:04:44;103899.56;;;-0.54;100.00
73516;BME280;61763;51.416;5.442;2023-02-07T00:07:10;103898.34;;;-0.62;100.00
73516;BME280;61763;51.416;5.442;2023-02-07T00:09:35;103898.25;;;-0.44;100.00
73516;BME280;61763;51.416;5.442;2023-02-07T00:12:02;103890.78;;;-0.52;100.00
73516;BME280;61763;51.416;5.442;2023-02-07T00:14:28;103881.53;;;-0.22;100.00
73516;BME280;61763;51.416;5.442;2023-02-07T00:16:55;103887.09;;;-0.15;100.00
73516;BME280;61763;51.416;5.442;2023-02-07T00:19:20;103890.72;;;0.08;100.00
73516;BME280;61763;51.416;5.442;2023-02-07T00:21:47;103891.56;;;-0.14;100.00
73516;BME280;61763;51.416;5.442;2023-02-07T00:24:13;103896.75;;;-0.17;100.00
73516;BME280;61763;51.416;5.442;2023-02-07T00:26:38;103894.72;;;-0.23;100.00
73516;BME280;61763;51.416;5.442;2023-02-07T00:29:04;103886.84;;;-0.22;100.00
73516;BME280;61763;51.416;5.442;2023-02-07T00:31:31;103890.88;;;-0.30;100.00
73516;BME280;61763;51.416;5.442;2023-02-07T00:34:00;103898.28;;;-0.23;100.00
73516;BME280;61763;51.416;5.442;2023-02-07T00:36:27;103898.09;;;-0.06;100.00
73516;BME280;61763;51.416;5.442;2023-02-07T00:39:00;103895.38;;;-0.08;100.00
73516;BME280;61763;51.416;5.442;2023-02-07T00:41:27;103885.47;;;-0.12;100.00
73516;BME280;61763;51.416;5.442;2023-02-07T00:43:52;103885.69;;;-0.07;100.00
73516;BME280;61763;51.416;5.442;2023-02-07T00:46:18;103880.63;;;-0.01;100.00
73516;BME280;61763;51.416;5.442;2023-02-07T00:48:44;103885.88;;;-0.03;100.00
73516;BME280;61763;51.416;5.442;2023-02-07T00:51:11;103886.06;;;-0.19;100.00
73516;BME280;61763;51.416;5.442;2023-02-07T00:53:38;103878.81;;;-0.23;100.00
73516;BME280;61763;51.416;5.442;2023-02-07T00:56:05;103883.44;;;-0.39;100.00
73516;BME280;61763;51.416;5.442;2023-02-07T00:58:32;103882.81;;;-0.52;100.00
73516;BME280;61763;51.416;5.442;2023-02-07T01:00:58;103892.66;;;-0.69;100.00
73516;BME280;61763;51.416;5.442;2023-02-07T01:03:24;103879.69;;;-0.83;100.00
73516;BME280;61763;51.416;5.442;2023-02-07T01:05:49;103877.69;;;-0.69;100.00
73516;BME280;61763;51.416;5.442;2023-02-07T01:08:14;103872.25;;;-0.72;100.00
73516;BME280;61763;51.416;5.442;2023-02-07T01:10:42;103887.88;;;-0.59;100.00
73516;BME280;61763;51.416;5.442;2023-02-07T01:13:08;103878.91;;;-0.61;100.00
73516;BME280;61763;51.416;5.442;2023-02-07T01:15:35;103878.78;;;-0.64;100.00
73516;BME280;61763;51.416;5.442;2023-02-07T01:18:02;103883.34;;;-0.81;100.00
73516;BME280;61763;51.416;5.442;2023-02-07T01:20:28;103880.41;;;-0.67;100.00
73516;BME280;61763;51.416;5.442;2023-02-07T01:22:53;103888.34;;;-0.67;100.00
73516;BME280;61763;51.416;5.442;2023-02-07T01:25:19;103888.34;;;-0.67;100.00
73516;BME280;61763;51.416;5.442;2023-02-07T01:27:44;103881.00;;;-0.54;100.00
73516;BME280;61763;51.416;5.442;2023-02-07T01:30:10;103887.81;;;-0.60;100.00
73516;BME280;61763;51.416;5.442;2023-02-07T01:32:36;103868.25;;;-0.62;100.00
73516;BME280;61763;51.416;5.442;2023-02-07T01:35:02;103871.81;;;-0.62;100.00
73516;BME280;61763;51.416;5.442;2023-02-07T01:37:27;103872.44;;;-0.67;100.00
73516;BME280;61763;51.416;5.442;2023-02-07T01:39:53;103870.69;;;-0.86;100.00
73516;BME280;61763;51.416;5.442;2023-02-07T01:42:22;103882.56;;;-0.98;100.00
73516;BME280;61763;51.416;5.442;2023-02-07T01:47:23;103879.88;;;-1.17;100.00
73516;BME280;61763;51.416;5.442;2023-02-07T01:49:51;103879.75;;;-1.38;100.00
73516;BME280;61763;51.416;5.442;2023-02-07T01:52:20;103874.47;;;-1.56;100.00
73516;BME280;61763;51.416;5.442;2023-02-07T01:54:50;103881.50;;;-1.39;100.00
73516;BME280;61763;51.416;5.442;2023-02-07T01:57:20;103884.28;;;-1.36;100.00
73516;BME280;61763;51.416;5.442;2023-02-07T01:59:48;103894.50;;;-1.26;100.00
73516;BME280;61763;51.416;5.442;2023-02-07T02:02:18;103887.13;;;-1.51;100.00
73516;BME280;61763;51.416;5.442;2023-02-07T02:04:46;103883.88;;;-1.63;100.00
73516;BME280;61763;51.416;5.442;2023-02-07T02:07:14;103875.69;;;-1.50;100.00
73516;BME280;61763;51.416;5.442;2023-02-07T02:09:40;103878.38;;;-1.30;100.00
73516;BME280;61763;51.416;5.442;2023-02-07T02:17:47;103881.56;;;-1.37;100.00
73516;BME280;61763;51.416;5.442;2023-02-07T02:23:19;103884.78;;;-0.88;100.00
73516;BME280;61763;51.416;5.442;2023-02-07T02:29:00;103892.53;;;-0.92;100.00
73516;BME280;61763;51.416;5.442;2023-02-07T02:31:36;103886.50;;;-1.08;100.00
73516;BME280;61763;51.416;5.442;2023-02-07T02:34:45;103876.69;;;-1.10;100.00
73516;BME280;61763;51.416;5.442;2023-02-07T02:40:07;103882.88;;;-1.29;100.00
73516;BME280;61763;51.416;5.442;2023-02-07T02:42:41;103893.75;;;-1.23;100.00
73516;BME280;61763;51.416;5.442;2023-02-07T02:45:14;103888.72;;;-1.17;100.00
73516;BME280;61763;51.416;5.442;2023-02-07T02:47:45;103887.22;;;-1.12;100.00
73516;BME280;61763;51.416;5.442;2023-02-07T02:50:14;103889.72;;;-1.15;100.00
73516;BME280;61763;51.416;5.442;2023-02-07T02:52:42;103882.06;;;-1.09;100.00
73516;BME280;61763;51.416;5.442;2023-02-07T02:55:07;103877.66;;;-0.89;100.00
73516;BME280;61763;51.416;5.442;2023-02-07T02:57:56;103878.00;;;-1.00;100.00
73516;BME280;61763;51.416;5.442;2023-02-07T03:00:36;103877.78;;;-0.85;100.00
73516;BME280;61763;51.416;5.442;2023-02-07T03:08:45;103877.47;;;-0.93;100.00
73516;BME280;61763;51.416;5.442;2023-02-07T03:16:33;103883.03;;;-1.07;100.00
73516;BME280;61763;51.416;5.442;2023-02-07T03:19:10;103890.56;;;-1.16;100.00
73516;BME280;61763;51.416;5.442;2023-02-07T03:21:38;103891.94;;;-1.24;100.00
73516;BME280;61763;51.416;5.442;2023-02-07T03:24:11;103889.66;;;-1.34;100.00
73516;BME280;61763;51.416;5.442;2023-02-07T03:26:38;103892.31;;;-1.34;100.00
73516;BME280;61763;51.416;5.442;2023-02-07T03:29:05;103882.56;;;-1.35;100.00
73516;BME280;61763;51.416;5.442;2023-02-07T03:31:33;103890.84;;;-1.47;100.00
73516;BME280;61763;51.416;5.442;2023-02-07T03:34:08;103890.66;;;-1.50;100.00
73516;BME280;61763;51.416;5.442;2023-02-07T03:36:42;103882.22;;;-1.61;100.00
73516;BME280;61763;51.416;5.442;2023-02-07T03:39:10;103869.03;;;-1.60;100.00
73516;BME280;61763;51.416;5.442;2023-02-07T03:41:43;103880.53;;;-1.59;100.00
73516;BME280;61763;51.416;5.442;2023-02-07T03:44:12;103875.00;;;-1.64;100.00
73516;BME280;61763;51.416;5.442;2023-02-07T03:46:40;103874.88;;;-1.67;100.00
73516;BME280;61763;51.416;5.442;2023-02-07T03:49:05;103869.81;;;-1.80;100.00
73516;BME280;61763;51.416;5.442;2023-02-07T03:51:35;103872.06;;;-1.88;100.00
73516;BME280;61763;51.416;5.442;2023-02-07T03:54:01;103873.34;;;-1.98;100.00
73516;BME280;61763;51.416;5.442;2023-02-07T03:56:26;103869.44;;;-1.88;100.00
73516;BME280;61763;51.416;5.442;2023-02-07T03:58:52;103867.38;;;-1.94;100.00
73516;BME280;61763;51.416;5.442;2023-02-07T04:01:17;103860.03;;;-1.99;100.00
73516;BME280;61763;51.416;5.442;2023-02-07T04:03:42;103859.00;;;-2.03;100.00
73516;BME280;61763;51.416;5.442;2023-02-07T04:06:08;103864.34;;;-2.01;100.00
73516;BME280;61763;51.416;5.442;2023-02-07T04:08:33;103846.28;;;-2.10;100.00
73516;BME280;61763;51.416;5.442;2023-02-07T04:11:01;103855.25;;;-2.06;100.00
73516;BME280;61763;51.416;5.442;2023-02-07T04:13:28;103856.78;;;-2.12;100.00
73516;BME280;61763;51.416;5.442;2023-02-07T04:15:55;103854.56;;;-2.20;100.00
73516;BME280;61763;51.416;5.442;2023-02-07T04:18:21;103857.38;;;-2.17;100.00
73516;BME280;61763;51.416;5.442;2023-02-07T04:20:47;103853.13;;;-2.14;100.00
73516;BME280;61763;51.416;5.442;2023-02-07T04:23:12;103861.41;;;-2.07;100.00
73516;BME280;61763;51.416;5.442;2023-02-07T04:25:38;103860.63;;;-2.23;100.00
73516;BME280;61763;51.416;5.442;2023-02-07T04:28:03;103852.22;;;-2.32;100.00
73516;BME280;61763;51.416;5.442;2023-02-07T04:30:28;103858.00;;;-2.39;100.00
73516;BME280;61763;51.416;5.442;2023-02-07T04:32:55;103856.09;;;-2.42;100.00
73516;BME280;61763;51.416;5.442;2023-02-07T04:35:21;103855.22;;;-2.42;100.00
73516;BME280;61763;51.416;5.442;2023-02-07T04:37:46;103854.06;;;-2.48;100.00
73516;BME280;61763;51.416;5.442;2023-02-07T04:40:12;103860.81;;;-2.71;100.00
73516;BME280;61763;51.416;5.442;2023-02-07T04:42:37;103857.38;;;-2.68;100.00
73516;BME280;61763;51.416;5.442;2023-02-07T04:45:03;103854.47;;;-2.56;100.00
73516;BME280;61763;51.416;5.442;2023-02-07T04:47:29;103856.16;;;-2.58;100.00
73516;BME280;61763;51.416;5.442;2023-02-07T04:49:54;103852.25;;;-2.65;100.00
73516;BME280;61763;51.416;5.442;2023-02-07T04:52:19;103846.34;;;-2.77;100.00
73516;BME280;61763;51.416;5.442;2023-02-07T04:54:45;103851.72;;;-2.92;100.00
73516;BME280;61763;51.416;5.442;2023-02-07T04:57:10;103848.84;;;-3.13;100.00
73516;BME280;61763;51.416;5.442;2023-02-07T04:59:36;103854.22;;;-3.27;100.00
73516;BME280;61763;51.416;5.442;2023-02-07T05:02:01;103855.41;;;-3.22;100.00
73516;BME280;61763;51.416;5.442;2023-02-07T05:04:27;103855.16;;;-3.43;100.00
73516;BME280;61763;51.416;5.442;2023-02-07T05:06:53;103850.81;;;-3.57;100.00
73516;BME280;61763;51.416;5.442;2023-02-07T05:09:19;103850.22;;;-3.68;100.00
73516;BME280;61763;51.416;5.442;2023-02-07T05:11:44;103854.41;;;-3.72;100.00
73516;BME280;61763;51.416;5.442;2023-02-07T05:14:09;103865.41;;;-3.79;100.00
73516;BME280;61763;51.416;5.442;2023-02-07T05:16:35;103860.94;;;-3.80;100.00
73516;BME280;61763;51.416;5.442;2023-02-07T05:19:00;103874.91;;;-3.82;100.00
73516;BME280;61763;51.416;5.442;2023-02-07T05:21:26;103871.59;;;-3.63;100.00
73516;BME280;61763;51.416;5.442;2023-02-07T05:23:51;103872.44;;;-3.48;100.00
73516;BME280;61763;51.416;5.442;2023-02-07T05:26:17;103873.06;;;-3.37;100.00
73516;BME280;61763;51.416;5.442;2023-02-07T05:28:42;103867.72;;;-3.54;100.00
73516;BME280;61763;51.416;5.442;2023-02-07T05:31:09;103859.88;;;-3.37;100.00
73516;BME280;61763;51.416;5.442;2023-02-07T05:33:34;103869.88;;;-3.46;100.00
73516;BME280;61763;51.416;5.442;2023-02-07T05:36:00;103874.69;;;-3.39;100.00
73516;BME280;61763;51.416;5.442;2023-02-07T05:38:27;103877.38;;;-3.54;100.00
73516;BME280;61763;51.416;5.442;2023-02-07T05:40:52;103879.50;;;-3.32;100.00
73516;BME280;61763;51.416;5.442;2023-02-07T05:43:18;103875.47;;;-3.25;100.00
73516;BME280;61763;51.416;5.442;2023-02-07T05:45:43;103880.78;;;-3.40;100.00
73516;BME280;61763;51.416;5.442;2023-02-07T05:48:10;103876.66;;;-3.52;100.00
73516;BME280;61763;51.416;5.442;2023-02-07T05:50:36;103884.84;;;-3.47;100.00
73516;BME280;61763;51.416;5.442;2023-02-07T05:53:02;103889.50;;;-3.58;100.00
73516;BME280;61763;51.416;5.442;2023-02-07T05:55:27;103888.06;;;-3.67;100.00
73516;BME280;61763;51.416;5.442;2023-02-07T05:57:53;103897.25;;;-3.76;100.00
73516;BME280;61763;51.416;5.442;2023-02-07T06:00:19;103897.81;;;-3.81;100.00
73516;BME280;61763;51.416;5.442;2023-02-07T06:02:45;103882.00;;;-3.96;100.00
73516;BME280;61763;51.416;5.442;2023-02-07T06:05:12;103906.41;;;-4.00;100.00
73516;BME280;61763;51.416;5.442;2023-02-07T06:07:38;103907.50;;;-4.12;100.00
73516;BME280;61763;51.416;5.442;2023-02-07T06:10:05;103906.97;;;-4.21;100.00
73516;BME280;61763;51.416;5.442;2023-02-07T06:12:32;103901.38;;;-4.26;100.00
73516;BME280;61763;51.416;5.442;2023-02-07T06:14:57;103913.22;;;-4.19;100.00
73516;BME280;61763;51.416;5.442;2023-02-07T06:17:22;103917.19;;;-4.26;100.00
73516;BME280;61763;51.416;5.442;2023-02-07T06:19:49;103914.91;;;-4.34;100.00
73516;BME280;61763;51.416;5.442;2023-02-07T06:22:14;103917.56;;;-4.34;100.00
73516;BME280;61763;51.416;5.442;2023-02-07T06:24:40;103907.03;;;-4.05;100.00
73516;BME280;61763;51.416;5.442;2023-02-07T06:27:06;103910.50;;;-4.06;100.00
73516;BME280;61763;51.416;5.442;2023-02-07T06:29:32;103910.75;;;-4.16;100.00
73516;BME280;61763;51.416;5.442;2023-02-07T06:31:57;103913.66;;;-4.26;100.00
73516;BME280;61763;51.416;5.442;2023-02-07T06:34:23;103921.75;;;-4.23;100.00
73516;BME280;61763;51.416;5.442;2023-02-07T06:36:48;103931.94;;;-4.29;100.00
73516;BME280;61763;51.416;5.442;2023-02-07T06:39:14;103926.03;;;-4.40;100.00
73516;BME280;61763;51.416;5.442;2023-02-07T06:41:39;103932.72;;;-4.45;100.00
73516;BME280;61763;51.416;5.442;2023-02-07T06:44:05;103933.16;;;-4.52;100.00
73516;BME280;61763;51.416;5.442;2023-02-07T06:46:30;103939.84;;;-4.44;100.00
73516;BME280;61763;51.416;5.442;2023-02-07T06:48:56;103940.91;;;-4.41;100.00
73516;BME280;61763;51.416;5.442;2023-02-07T06:51:21;103936.16;;;-4.46;100.00
73516;BME280;61763;51.416;5.442;2023-02-07T06:53:47;103945.28;;;-4.41;100.00
73516;BME280;61763;51.416;5.442;2023-02-07T06:56:14;103940.72;;;-4.44;100.00
73516;BME280;61763;51.416;5.442;2023-02-07T06:58:40;103948.56;;;-4.45;100.00
73516;BME280;61763;51.416;5.442;2023-02-07T07:01:05;103939.75;;;-4.46;100.00
73516;BME280;61763;51.416;5.442;2023-02-07T07:03:31;103939.47;;;-4.50;100.00
73516;BME280;61763;51.416;5.442;2023-02-07T07:05:57;103939.16;;;-4.55;100.00
73516;BME280;61763;51.416;5.442;2023-02-07T07:08:24;103953.25;;;-4.54;100.00
73516;BME280;61763;51.416;5.442;2023-02-07T07:10:49;103952.25;;;-4.57;100.00
73516;BME280;61763;51.416;5.442;2023-02-07T07:13:15;103956.34;;;-4.62;100.00
73516;BME280;61763;51.416;5.442;2023-02-07T07:15:42;103951.69;;;-4.66;100.00
73516;BME280;61763;51.416;5.442;2023-02-07T07:18:07;103960.69;;;-4.62;100.00
73516;BME280;61763;51.416;5.442;2023-02-07T07:20:33;103961.06;;;-4.56;100.00
73516;BME280;61763;51.416;5.442;2023-02-07T07:22:59;103960.25;;;-4.55;100.00
73516;BME280;61763;51.416;5.442;2023-02-07T07:25:24;103963.81;;;-4.54;100.00
73516;BME280;61763;51.416;5.442;2023-02-07T07:27:51;103959.38;;;-4.41;100.00
73516;BME280;61763;51.416;5.442;2023-02-07T07:30:16;103968.09;;;-3.98;100.00
73516;BME280;61763;51.416;5.442;2023-02-07T07:32:44;103971.44;;;-3.71;100.00
73516;BME280;61763;51.416;5.442;2023-02-07T07:35:09;103965.53;;;-3.67;100.00
73516;BME280;61763;51.416;5.442;2023-02-07T07:37:36;103960.31;;;-3.65;100.00
73516;BME280;61763;51.416;5.442;2023-02-07T07:40:02;103974.19;;;-3.55;100.00
73516;BME280;61763;51.416;5.442;2023-02-07T07:42:27;103975.63;;;-3.60;100.00
73516;BME280;61763;51.416;5.442;2023-02-07T07:44:54;103973.16;;;-3.57;100.00
73516;BME280;61763;51.416;5.442;2023-02-07T07:47:19;103981.81;;;-3.59;100.00
73516;BME280;61763;51.416;5.442;2023-02-07T07:49:45;103981.91;;;-3.58;100.00
73516;BME280;61763;51.416;5.442;2023-02-07T07:52:12;103988.19;;;-3.56;100.00
73516;BME280;61763;51.416;5.442;2023-02-07T07:54:38;103990.47;;;-3.47;100.00
73516;BME280;61763;51.416;5.442;2023-02-07T07:57:03;103981.06;;;-3.42;100.00
73516;BME280;61763;51.416;5.442;2023-02-07T07:59:28;103994.22;;;-3.27;100.00
73516;BME280;61763;51.416;5.442;2023-02-07T08:01:54;103995.69;;;-3.17;100.00
73516;BME280;61763;51.416;5.442;2023-02-07T08:04:19;103988.41;;;-3.21;100.00
73516;BME280;61763;51.416;5.442;2023-02-07T08:06:45;103992.69;;;-3.23;100.00
73516;BME280;61763;51.416;5.442;2023-02-07T08:09:10;103986.84;;;-3.18;100.00
73516;BME280;61763;51.416;5.442;2023-02-07T08:11:36;103980.25;;;-3.09;100.00
73516;BME280;61763;51.416;5.442;2023-02-07T08:14:01;103985.63;;;-3.08;100.00
73516;BME280;61763;51.416;5.442;2023-02-07T08:16:27;103984.72;;;-3.08;100.00
73516;BME280;61763;51.416;5.442;2023-02-07T08:18:53;103992.09;;;-3.03;100.00
73516;BME280;61763;51.416;5.442;2023-02-07T08:21:18;103996.47;;;-3.03;100.00
73516;BME280;61763;51.416;5.442;2023-02-07T08:23:44;103995.78;;;-2.84;100.00
73516;BME280;61763;51.416;5.442;2023-02-07T08:26:10;103991.97;;;-2.89;100.00
73516;BME280;61763;51.416;5.442;2023-02-07T08:28:36;103991.16;;;-2.88;100.00
73516;BME280;61763;51.416;5.442;2023-02-07T08:31:03;103986.59;;;-2.74;100.00
73516;BME280;61763;51.416;5.442;2023-02-07T08:33:30;103995.56;;;-2.72;100.00
73516;BME280;61763;51.416;5.442;2023-02-07T08:35:57;103991.09;;;-2.73;100.00
73516;BME280;61763;51.416;5.442;2023-02-07T08:38:23;103998.28;;;-2.54;100.00
73516;BME280;61763;51.416;5.442;2023-02-07T08:40:50;103993.00;;;-2.38;100.00
73516;BME280;61763;51.416;5.442;2023-02-07T08:43:16;103979.19;;;-2.32;100.00
73516;BME280;61763;51.416;5.442;2023-02-07T08:45:46;103976.38;;;-2.35;100.00
73516;BME280;61763;51.416;5.442;2023-02-07T08:48:11;103987.63;;;-2.23;100.00
73516;BME280;61763;51.416;5.442;2023-02-07T08:50:38;103990.34;;;-2.21;100.00
73516;BME280;61763;51.416;5.442;2023-02-07T08:53:04;103975.38;;;-2.04;100.00
73516;BME280;61763;51.416;5.442;2023-02-07T08:55:29;103984.03;;;-2.07;100.00
73516;BME280;61763;51.416;5.442;2023-02-07T08:57:55;103974.28;;;-2.08;100.00
73516;BME280;61763;51.416;5.442;2023-02-07T09:00:21;103977.66;;;-1.94;100.00
73516;BME280;61763;51.416;5.442;2023-02-07T09:02:47;103985.16;;;-1.85;100.00
73516;BME280;61763;51.416;5.442;2023-02-07T09:05:12;103978.34;;;-1.80;100.00
73516;BME280;61763;51.416;5.442;2023-02-07T09:07:38;103984.88;;;-1.73;100.00
73516;BME280;61763;51.416;5.442;2023-02-07T09:10:05;103976.59;;;-1.63;100.00
73516;BME280;61763;51.416;5.442;2023-02-07T09:12:32;103971.97;;;-1.49;100.00
73516;BME280;61763;51.416;5.442;2023-02-07T09:14:58;103974.16;;;-1.41;100.00
73516;BME280;61763;51.416;5.442;2023-02-07T09:17:23;103970.09;;;-1.34;100.00
73516;BME280;61763;51.416;5.442;2023-02-07T09:19:49;103973.84;;;-1.29;100.00
73516;BME280;61763;51.416;5.442;2023-02-07T09:22:14;103965.22;;;-1.25;100.00
73516;BME280;61763;51.416;5.442;2023-02-07T09:24:40;103968.16;;;-1.18;100.00
73516;BME280;61763;51.416;5.442;2023-02-07T09:27:05;103959.69;;;-1.11;100.00
73516;BME280;61763;51.416;5.442;2023-02-07T09:29:31;103939.59;;;-1.06;100.00
73516;BME280;61763;51.416;5.442;2023-02-07T09:31:57;103950.88;;;-0.92;100.00
73516;BME280;61763;51.416;5.442;2023-02-07T09:34:23;103951.97;;;-0.87;100.00
73516;BME280;61763;51.416;5.442;2023-02-07T09:36:49;103956.53;;;-0.84;100.00
73516;BME280;61763;51.416;5.442;2023-02-07T09:39:15;103955.56;;;-0.67;100.00
73516;BME280;61763;51.416;5.442;2023-02-07T09:42:04;103957.25;;;-0.69;100.00
73516;BME280;61763;51.416;5.442;2023-02-07T09:47:19;103947.69;;;-0.46;100.00
73516;BME280;61763;51.416;5.442;2023-02-07T09:50:24;103950.13;;;-0.31;100.00
73516;BME280;61763;51.416;5.442;2023-02-07T09:53:05;103945.84;;;-0.27;100.00
73516;BME280;61763;51.416;5.442;2023-02-07T09:55:46;103941.56;;;-0.24;100.00
73516;BME280;61763;51.416;5.442;2023-02-07T09:58:16;103945.03;;;-0.26;100.00
73516;BME280;61763;51.416;5.442;2023-02-07T10:00:46;103937.78;;;-0.09;100.00
73516;BME280;61763;51.416;5.442;2023-02-07T10:03:20;103937.16;;;-0.04;100.00
73516;BME280;61763;51.416;5.442;2023-02-07T10:05:59;103943.66;;;0.24;100.00
73516;BME280;61763;51.416;5.442;2023-02-07T10:08:26;103935.03;;;0.30;100.00
73516;BME280;61763;51.416;5.442;2023-02-07T10:10:57;103935.34;;;0.38;100.00
73516;BME280;61763;51.416;5.442;2023-02-07T10:22:05;103924.53;;;0.77;100.00
73516;BME280;61763;51.416;5.442;2023-02-07T10:27:30;103932.44;;;0.98;100.00
73516;BME280;61763;51.416;5.442;2023-02-07T10:30:07;103933.34;;;0.98;100.00
73516;BME280;61763;51.416;5.442;2023-02-07T10:32:38;103919.00;;;1.17;100.00
73516;BME280;61763;51.416;5.442;2023-02-07T10:35:34;103924.59;;;1.25;100.00
73516;BME280;61763;51.416;5.442;2023-02-07T10:38:10;103911.66;;;1.34;100.00
73516;BME280;61763;51.416;5.442;2023-02-07T10:41:05;103913.94;;;1.48;100.00
73516;BME280;61763;51.416;5.442;2023-02-07T10:43:36;103918.59;;;1.53;100.00
73516;BME280;61763;51.416;5.442;2023-02-07T10:46:05;103910.13;;;1.65;100.00
73516;BME280;61763;51.416;5.442;2023-02-07T10:48:33;103911.25;;;1.72;100.00
73516;BME280;61763;51.416;5.442;2023-02-07T10:51:05;103915.16;;;1.82;98.96
73516;BME280;61763;51.416;5.442;2023-02-07T10:54:01;103913.78;;;1.93;96.59
73516;BME280;61763;51.416;5.442;2023-02-07T10:56:29;103909.75;;;2.06;95.94
73516;BME280;61763;51.416;5.442;2023-02-07T10:58:56;103907.13;;;2.07;94.14
73516;BME280;61763;51.416;5.442;2023-02-07T11:01:25;103898.41;;;2.12;95.10
73516;BME280;61763;51.416;5.442;2023-02-07T11:03:51;103902.19;;;2.18;94.91
73516;BME280;61763;51.416;5.442;2023-02-07T11:06:31;103896.88;;;2.18;92.25
73516;BME280;61763;51.416;5.442;2023-02-07T11:09:22;103896.00;;;2.19;90.72
73516;BME280;61763;51.416;5.442;2023-02-07T11:11:49;103893.25;;;2.43;90.44
73516;BME280;61763;51.416;5.442;2023-02-07T11:14:20;103889.00;;;2.50;92.09
73516;BME280;61763;51.416;5.442;2023-02-07T11:16:51;103891.53;;;2.45;88.16
73516;BME280;61763;51.416;5.442;2023-02-07T11:19:23;103888.66;;;2.39;89.29
73516;BME280;61763;51.416;5.442;2023-02-07T11:21:52;103887.41;;;2.55;88.21
73516;BME280;61763;51.416;5.442;2023-02-07T11:24:34;103888.28;;;2.56;86.94
73516;BME280;61763;51.416;5.442;2023-02-07T11:27:15;103888.63;;;2.65;86.42
73516;BME280;61763;51.416;5.442;2023-02-07T11:29:49;103887.03;;;2.72;86.77
73516;BME280;61763;51.416;5.442;2023-02-07T11:32:16;103895.16;;;2.76;87.55
73516;BME280;61763;51.416;5.442;2023-02-07T11:39:47;103883.22;;;2.92;84.67
73516;BME280;61763;51.416;5.442;2023-02-07T11:42:25;103883.47;;;3.02;84.43
73516;BME280;61763;51.416;5.442;2023-02-07T11:44:54;103876.66;;;3.11;82.95
73516;BME280;61763;51.416;5.442;2023-02-07T11:47:27;103885.56;;;3.12;82.88
73516;BME280;61763;51.416;5.442;2023-02-07T11:49:56;103882.75;;;3.07;81.14
73516;BME280;61763;51.416;5.442;2023-02-07T11:52:23;103883.81;;;3.12;81.25
73516;BME280;61763;51.416;5.442;2023-02-07T11:54:53;103883.31;;;3.26;80.89
73516;BME280;61763;51.416;5.442;2023-02-07T11:57:21;103875.63;;;3.38;79.19
73516;BME280;61763;51.416;5.442;2023-02-07T12:02:33;103873.00;;;3.40;79.33
73516;BME280;61763;51.416;5.442;2023-02-07T12:05:17;103877.19;;;3.62;78.74
73516;BME280;61763;51.416;5.442;2023-02-07T12:07:47;103880.81;;;3.64;77.78
73516;BME280;61763;51.416;5.442;2023-02-07T12:10:20;103876.13;;;3.55;76.62
73516;BME280;61763;51.416;5.442;2023-02-07T12:13:03;103865.06;;;3.75;76.70
73516;BME280;61763;51.416;5.442;2023-02-07T12:15:44;103868.28;;;3.61;76.32
73516;BME280;61763;51.416;5.442;2023-02-07T12:18:39;103862.19;;;3.67;76.03
73516;BME280;61763;51.416;5.442;2023-02-07T12:21:16;103863.16;;;3.71;74.04
73516;BME280;61763;51.416;5.442;2023-02-07T12:23:45;103859.59;;;3.70;73.70
73516;BME280;61763;51.416;5.442;2023-02-07T12:31:36;103862.59;;;3.82;73.46
73516;BME280;61763;51.416;5.442;2023-02-07T12:34:33;103857.31;;;3.85;69.65
73516;BME280;61763;51.416;5.442;2023-02-07T12:37:13;103861.19;;;3.97;70.02
73516;BME280;61763;51.416;5.442;2023-02-07T12:39:47;103855.03;;;3.99;68.43
73516;BME280;61763;51.416;5.442;2023-02-07T12:42:36;103854.84;;;3.92;70.27
73516;BME280;61763;51.416;5.442;2023-02-07T12:45:04;103850.34;;;3.91;68.84
73516;BME280;61763;51.416;5.442;2023-02-07T12:53:42;103850.13;;;4.18;69.98
73516;BME280;61763;51.416;5.442;2023-02-07T13:13:20;103840.97;;;4.45;67.70
73516;BME280;61763;51.416;5.442;2023-02-07T13:16:14;103848.63;;;4.29;67.53
73516;BME280;61763;51.416;5.442;2023-02-07T13:21:32;103841.78;;;4.42;68.10
73516;BME280;61763;51.416;5.442;2023-02-07T13:24:05;103846.66;;;4.22;68.42
73516;BME280;61763;51.416;5.442;2023-02-07T13:26:35;103842.41;;;4.30;66.79
73516;BME280;61763;51.416;5.442;2023-02-07T13:29:14;103849.50;;;4.30;67.60
73516;BME280;61763;51.416;5.442;2023-02-07T13:31:50;103833.50;;;4.31;66.39
73516;BME280;61763;51.416;5.442;2023-02-07T13:34:23;103836.97;;;4.26;66.71
73516;BME280;61763;51.416;5.442;2023-02-07T13:36:51;103836.25;;;4.33;66.22
73516;BME280;61763;51.416;5.442;2023-02-07T13:44:41;103823.03;;;4.41;64.66
73516;BME280;61763;51.416;5.442;2023-02-07T13:52:34;103823.03;;;4.41;64.04
73516;BME280;61763;51.416;5.442;2023-02-07T13:55:21;103825.00;;;4.48;63.23
73516;BME280;61763;51.416;5.442;2023-02-07T13:57:49;103814.09;;;4.40;64.29
73516;BME280;61763;51.416;5.442;2023-02-07T14:00:58;103812.22;;;4.34;64.90
73516;BME280;61763;51.416;5.442;2023-02-07T14:03:32;103799.63;;;4.30;65.94
73516;BME280;61763;51.416;5.442;2023-02-07T14:06:41;103803.50;;;4.43;67.05
73516;BME280;61763;51.416;5.442;2023-02-07T14:14:35;103794.56;;;4.43;68.97
73516;BME280;61763;51.416;5.442;2023-02-07T14:17:13;103797.31;;;4.47;67.96
73516;BME280;61763;51.416;5.442;2023-02-07T14:22:26;103803.38;;;4.38;66.26
73516;BME280;61763;51.416;5.442;2023-02-07T14:27:29;103793.50;;;4.34;63.82
73516;BME280;61763;51.416;5.442;2023-02-07T14:30:12;103791.78;;;4.38;64.50
73516;BME280;61763;51.416;5.442;2023-02-07T14:38:28;103792.16;;;4.15;64.98
73516;BME280;61763;51.416;5.442;2023-02-07T14:41:01;103791.19;;;4.13;65.11
73516;BME280;61763;51.416;5.442;2023-02-07T14:46:12;103789.63;;;4.21;60.86
73516;BME280;61763;51.416;5.442;2023-02-07T14:54:06;103811.88;;;4.20;59.84